Time;durP1;ratioP1;P1;durP2;ratioP2;P2;SDS_P1;SDS_P2;PMS_P1;PMS_P2;Temp;Humidity;BMP_temperature;BMP_pressure;BME280_temperature;BME280_humidity;BME280_pressure;Samples;Min_cycle;Max_cycle;Signal;HPM_P1;HPM_P2
2023/09/24 00:02:07;;;;;;;1.63;0.73;;;15.60;99.70;;;;;;5040922;28;20180;-79
2023/09/24 00:04:33;;;;;;;0.60;0.60;;;15.60;99.90;;;;;;5058351;28;20206;-81
2023/09/24 00:06:59;;;;;;;0.73;0.73;;;15.60;99.90;;;;;;5073628;28;20165;-77
2023/09/24 00:09:25;;;;;;;0.60;0.60;;;15.60;99.80;;;;;;5071962;28;20203;-81
2023/09/24 00:11:50;;;;;;;0.90;0.90;;;15.60;99.70;;;;;;5066007;28;20169;-80
2023/09/24 00:14:16;;;;;;;0.77;0.77;;;15.60;99.60;;;;;;5045791;28;20191;-81
2023/09/24 00:16:42;;;;;;;0.70;0.70;;;15.60;99.30;;;;;;5057690;28;20183;-82
2023/09/24 00:19:07;;;;;;;1.33;0.73;;;15.70;99.40;;;;;;5057344;28;20643;-81
2023/09/24 00:21:33;;;;;;;0.70;0.70;;;15.70;99.10;;;;;;5057668;28;20236;-80
2023/09/24 00:23:59;;;;;;;0.70;0.70;;;15.70;99.40;;;;;;5058350;28;20234;-81
2023/09/24 00:26:25;;;;;;;0.77;0.77;;;15.60;99.40;;;;;;5057220;28;20223;-82
2023/09/24 00:28:51;;;;;;;0.90;0.90;;;15.70;99.20;;;;;;5056850;28;20168;-82
2023/09/24 00:31:17;;;;;;;0.90;0.90;;;15.70;98.90;;;;;;5057536;28;20295;-81
2023/09/24 00:33:43;;;;;;;1.73;0.80;;;15.70;99.10;;;;;;5057133;28;20164;-81
2023/09/24 00:36:09;;;;;;;0.73;0.73;;;15.70;99.10;;;;;;5058288;28;20173;-82
2023/09/24 00:38:37;;;;;;;0.73;0.70;;;15.70;98.90;;;;;;5057609;28;20235;-81
2023/09/24 00:41:03;;;;;;;1.40;0.83;;;15.70;99.30;;;;;;5057057;28;20167;-81
2023/09/24 00:43:31;;;;;;;0.80;0.80;;;15.60;99.40;;;;;;5072116;28;20245;-82
2023/09/24 00:45:58;;;;;;;0.70;0.70;;;15.60;99.10;;;;;;5065106;28;20168;-81
2023/09/24 00:48:27;;;;;;;0.70;0.70;;;15.70;99.20;;;;;;5056932;28;20168;-82
2023/09/24 00:50:56;;;;;;;0.93;0.93;;;15.60;99.20;;;;;;5057843;28;20622;-80
2023/09/24 00:53:26;;;;;;;0.53;0.53;;;15.60;99.30;;;;;;5042406;28;20718;-82
2023/09/24 00:55:53;;;;;;;0.60;0.60;;;15.60;99.00;;;;;;5061453;28;20181;-81
2023/09/24 00:58:19;;;;;;;0.70;0.70;;;15.60;98.90;;;;;;5077985;28;20172;-81
2023/09/24 01:00:46;;;;;;;1.07;0.90;;;15.60;99.00;;;;;;5067197;28;20598;-81
2023/09/24 01:03:13;;;;;;;0.80;0.80;;;15.60;99.10;;;;;;5064087;28;20234;-81
2023/09/24 01:05:40;;;;;;;0.87;0.87;;;15.60;99.20;;;;;;5069825;28;20184;-81
2023/09/24 01:08:06;;;;;;;0.80;0.80;;;15.60;99.40;;;;;;5075580;28;20161;-84
2023/09/24 01:10:32;;;;;;;0.80;0.80;;;15.50;99.40;;;;;;5057213;28;20239;-81
2023/09/24 01:12:59;;;;;;;0.60;0.60;;;15.50;99.60;;;;;;5056316;28;20192;-81
2023/09/24 01:15:25;;;;;;;0.77;0.77;;;15.50;99.50;;;;;;5056757;28;20198;-83
2023/09/24 01:17:52;;;;;;;0.60;0.60;;;15.50;99.40;;;;;;5056307;28;20176;-81
2023/09/24 01:20:21;;;;;;;1.10;1.10;;;15.50;99.70;;;;;;5056586;28;20171;-81
2023/09/24 01:22:48;;;;;;;0.60;0.60;;;15.50;99.10;;;;;;5056196;28;20194;-83
2023/09/24 01:25:14;;;;;;;1.17;0.80;;;15.40;99.80;;;;;;5056259;28;20179;-83
2023/09/24 01:27:40;;;;;;;1.00;0.67;;;15.40;99.50;;;;;;5055985;28;20224;-81
2023/09/24 01:30:07;;;;;;;1.00;1.00;;;15.40;99.50;;;;;;5056465;28;20238;-81
2023/09/24 01:32:34;;;;;;;0.90;0.90;;;15.40;99.50;;;;;;5069321;28;20150;-80
2023/09/24 01:35:03;;;;;;;0.90;0.90;;;15.40;99.40;;;;;;5062859;28;20170;-81
2023/09/24 01:37:29;;;;;;;1.00;0.97;;;15.40;99.40;;;;;;5056324;28;20213;-82
2023/09/24 01:39:55;;;;;;;0.80;0.80;;;15.40;99.30;;;;;;5055915;28;20215;-82
2023/09/24 01:42:20;;;;;;;1.23;0.90;;;15.40;99.10;;;;;;5056781;28;20172;-85
2023/09/24 01:44:47;;;;;;;1.10;0.60;;;15.40;99.10;;;;;;5075628;28;20183;-81
2023/09/24 01:47:13;;;;;;;0.77;0.77;;;15.40;98.90;;;;;;5062054;28;20179;-82
2023/09/24 01:49:39;;;;;;;0.90;0.90;;;15.40;98.90;;;;;;5055754;28;20214;-81
2023/09/24 01:52:05;;;;;;;0.80;0.80;;;15.40;99.00;;;;;;5056054;28;20211;-82
2023/09/24 01:54:31;;;;;;;0.93;0.90;;;15.40;99.10;;;;;;5056122;28;20164;-82
2023/09/24 01:56:57;;;;;;;1.10;1.00;;;15.40;99.30;;;;;;5055880;28;20229;-84
2023/09/24 01:59:24;;;;;;;1.33;1.23;;;15.40;99.10;;;;;;5055873;28;20171;-82
2023/09/24 02:01:53;;;;;;;1.03;1.00;;;15.40;99.40;;;;;;5038379;28;20175;-79
2023/09/24 02:04:19;;;;;;;1.60;0.60;;;15.40;99.40;;;;;;5056383;28;20171;-82
2023/09/24 02:06:45;;;;;;;0.50;0.50;;;15.30;99.50;;;;;;5065426;28;20874;-83
2023/09/24 02:09:14;;;;;;;0.70;0.70;;;15.30;98.80;;;;;;5068655;28;20176;-81
2023/09/24 02:11:39;;;;;;;0.70;0.70;;;15.40;99.00;;;;;;5057139;28;20184;-80
2023/09/24 02:14:05;;;;;;;0.90;0.90;;;15.40;99.50;;;;;;5055086;28;20183;-80
2023/09/24 02:16:31;;;;;;;0.80;0.80;;;15.40;98.70;;;;;;5054996;28;20591;-81
2023/09/24 02:18:57;;;;;;;1.03;1.00;;;15.40;98.90;;;;;;5055240;28;20180;-80
2023/09/24 02:21:24;;;;;;;0.80;0.80;;;15.40;99.20;;;;;;5054959;28;20181;-79
2023/09/24 02:23:53;;;;;;;0.60;0.60;;;15.60;99.40;;;;;;5055294;28;20169;-80
2023/09/24 02:26:19;;;;;;;0.77;0.77;;;15.40;99.10;;;;;;5054971;28;20224;-80
2023/09/24 02:28:45;;;;;;;0.70;0.70;;;15.40;98.90;;;;;;5055035;28;20175;-80
2023/09/24 02:31:11;;;;;;;0.80;0.80;;;15.40;98.80;;;;;;5055383;28;20200;-79
2023/09/24 02:33:37;;;;;;;1.20;0.67;;;15.40;99.00;;;;;;5054461;28;20254;-80
2023/09/24 02:36:08;;;;;;;0.80;0.80;;;15.40;99.00;;;;;;5058063;28;20211;-81
2023/09/24 02:38:34;;;;;;;1.80;1.23;;;15.40;98.80;;;;;;5058255;28;20152;-81
2023/09/24 02:41:00;;;;;;;2.17;1.00;;;15.40;98.90;;;;;;5070287;28;20179;-82
2023/09/24 02:43:27;;;;;;;0.70;0.70;;;15.40;98.70;;;;;;5061173;28;20203;-82
2023/09/24 02:45:56;;;;;;;0.90;0.80;;;15.40;98.30;;;;;;5054603;28;20543;-82
2023/09/24 02:48:22;;;;;;;0.63;0.63;;;15.50;98.50;;;;;;5054481;28;20279;-82
2023/09/24 02:50:49;;;;;;;0.70;0.70;;;15.40;98.40;;;;;;5037120;28;20218;-81
2023/09/24 02:53:15;;;;;;;0.60;0.60;;;15.40;98.20;;;;;;5059613;28;20178;-83
2023/09/24 02:55:41;;;;;;;0.67;0.67;;;15.50;98.70;;;;;;5056199;28;20267;-80
2023/09/24 02:58:08;;;;;;;0.60;0.60;;;15.50;98.70;;;;;;5067928;28;20175;-82
2023/09/24 03:00:41;;;;;;;0.80;0.80;;;15.50;98.20;;;;;;5064025;28;20167;-82
2023/09/24 03:03:09;;;;;;;0.77;0.77;;;15.50;98.30;;;;;;5063477;28;20208;-83
2023/09/24 03:05:35;;;;;;;0.80;0.80;;;15.50;98.30;;;;;;5057936;28;20538;-81
2023/09/24 03:08:02;;;;;;;0.90;0.73;;;15.50;98.20;;;;;;5054713;28;20179;-80
2023/09/24 03:10:32;;;;;;;1.80;0.80;;;15.60;97.80;;;;;;5072563;28;20219;-80
2023/09/24 03:12:59;;;;;;;0.80;0.80;;;15.60;97.80;;;;;;5038059;28;20235;-80
2023/09/24 03:15:26;;;;;;;0.90;0.90;;;15.60;97.60;;;;;;5055078;28;20176;-80
2023/09/24 03:17:53;;;;;;;0.77;0.77;;;15.60;97.50;;;;;;5057277;28;20188;-80
2023/09/24 03:20:20;;;;;;;0.77;0.77;;;15.60;97.60;;;;;;5071917;28;20179;-80
2023/09/24 03:22:50;;;;;;;0.83;0.83;;;15.70;97.30;;;;;;5034629;28;20192;-80
2023/09/24 03:25:21;;;;;;;0.70;0.70;;;15.70;97.40;;;;;;5059206;28;20179;-81
2023/09/24 03:27:53;;;;;;;0.97;0.70;;;15.70;97.30;;;;;;5058147;28;20238;-80
2023/09/24 03:30:19;;;;;;;0.73;0.73;;;15.80;97.10;;;;;;5058053;28;20243;-81
2023/09/24 03:32:53;;;;;;;0.80;0.80;;;15.70;97.70;;;;;;5058049;28;20539;-80
2023/09/24 03:35:26;;;;;;;0.90;0.90;;;15.70;97.30;;;;;;5039890;28;20179;-80
2023/09/24 03:37:53;;;;;;;0.70;0.70;;;15.70;97.30;;;;;;5039668;28;20631;-81
2023/09/24 03:40:23;;;;;;;0.80;0.70;;;15.70;97.00;;;;;;5039861;28;20172;-81
2023/09/24 03:42:49;;;;;;;0.80;0.80;;;15.80;97.10;;;;;;5057582;28;20911;-81
2023/09/24 03:45:16;;;;;;;1.27;0.90;;;15.80;97.40;;;;;;5057128;28;20179;-78
2023/09/24 03:47:43;;;;;;;3.30;1.20;;;15.80;97.10;;;;;;5068554;28;20232;-79
2023/09/24 03:50:13;;;;;;;0.60;0.60;;;15.50;96.80;;;;;;5074140;28;20213;-77
2023/09/24 03:52:42;;;;;;;1.30;0.80;;;15.80;97.00;;;;;;5062903;28;20164;-79
2023/09/24 03:55:08;;;;;;;1.03;1.00;;;15.90;96.90;;;;;;5058133;28;20180;-79
2023/09/24 03:57:35;;;;;;;1.40;0.90;;;15.80;97.30;;;;;;5057895;28;20204;-79
2023/09/24 04:00:01;;;;;;;0.80;0.80;;;15.80;97.60;;;;;;5058087;28;20165;-80
2023/09/24 04:02:27;;;;;;;0.80;0.80;;;15.80;96.80;;;;;;5063700;28;20186;-80
2023/09/24 04:04:53;;;;;;;0.53;0.53;;;15.80;97.00;;;;;;5071907;28;20169;-78
2023/09/24 04:07:20;;;;;;;0.70;0.70;;;15.80;96.90;;;;;;5051854;28;20181;-78
2023/09/24 04:09:47;;;;;;;0.80;0.80;;;15.90;97.00;;;;;;5060154;28;20211;-80
2023/09/24 04:12:13;;;;;;;0.87;0.83;;;15.80;97.00;;;;;;5060417;28;20227;-79
2023/09/24 04:14:39;;;;;;;0.73;0.73;;;15.70;96.50;;;;;;5057278;28;20580;-80
2023/09/24 04:17:06;;;;;;;0.80;0.73;;;15.90;96.40;;;;;;5040580;28;20275;-81
2023/09/24 04:19:32;;;;;;;0.77;0.77;;;15.90;96.60;;;;;;5057620;28;20178;-79
2023/09/24 04:21:58;;;;;;;0.97;0.97;;;16.00;96.10;;;;;;5057108;28;20176;-79
2023/09/24 04:24:25;;;;;;;0.80;0.80;;;16.00;96.10;;;;;;5056828;28;20242;-75
2023/09/24 04:26:54;;;;;;;1.10;1.10;;;15.90;96.70;;;;;;5058297;28;20231;-78
2023/09/24 04:29:20;;;;;;;1.17;0.80;;;15.90;96.40;;;;;;5056466;28;20179;-79
2023/09/24 04:31:46;;;;;;;1.20;1.10;;;15.90;96.30;;;;;;5056185;28;20183;-80
2023/09/24 04:34:13;;;;;;;0.70;0.70;;;15.90;96.40;;;;;;5056424;28;20626;-80
2023/09/24 04:36:42;;;;;;;0.70;0.70;;;15.90;96.00;;;;;;5055873;28;20187;-80
2023/09/24 04:39:12;;;;;;;0.50;0.50;;;15.90;96.00;;;;;;5057546;28;20259;-80
2023/09/24 04:41:40;;;;;;;0.70;0.70;;;15.90;96.10;;;;;;5067279;28;20175;-80
2023/09/24 04:44:07;;;;;;;0.70;0.70;;;15.90;96.10;;;;;;5069361;28;20171;-79
2023/09/24 04:46:33;;;;;;;0.77;0.70;;;15.90;96.00;;;;;;5073101;28;20198;-78
2023/09/24 04:49:02;;;;;;;0.70;0.70;;;15.90;96.00;;;;;;5071143;28;20722;-82
2023/09/24 04:51:29;;;;;;;0.67;0.67;;;15.90;96.00;;;;;;5057389;28;20197;-79
2023/09/24 04:53:55;;;;;;;0.70;0.70;;;15.90;95.70;;;;;;5056511;28;20172;-79
2023/09/24 04:56:20;;;;;;;1.10;1.00;;;16.00;95.80;;;;;;5057196;28;20550;-81
2023/09/24 04:58:46;;;;;;;0.90;0.90;;;16.00;95.80;;;;;;5064547;28;20173;-81
2023/09/24 05:01:12;;;;;;;1.20;0.90;;;15.90;95.70;;;;;;5074135;28;20241;-80
2023/09/24 05:03:40;;;;;;;0.97;0.83;;;16.00;95.70;;;;;;5063266;28;20181;-82
2023/09/24 05:06:07;;;;;;;0.80;0.80;;;15.90;95.60;;;;;;5041669;28;20189;-81
2023/09/24 05:08:32;;;;;;;0.80;0.80;;;16.00;95.40;;;;;;5060171;28;20185;-82
2023/09/24 05:10:59;;;;;;;0.80;0.80;;;16.00;95.90;;;;;;5064913;28;20209;-81
2023/09/24 05:13:24;;;;;;;0.70;0.70;;;16.00;95.80;;;;;;5056238;28;20656;-80
2023/09/24 05:15:57;;;;;;;0.90;0.90;;;16.00;95.50;;;;;;5056270;28;20169;-81
2023/09/24 05:18:23;;;;;;;0.80;0.80;;;16.00;95.10;;;;;;5056211;28;20165;-80
2023/09/24 05:20:49;;;;;;;1.00;1.00;;;16.10;95.40;;;;;;5056294;28;20185;-78
2023/09/24 05:23:15;;;;;;;2.03;0.83;;;16.10;95.60;;;;;;5056063;28;20172;-80
2023/09/24 05:25:41;;;;;;;0.63;0.63;;;16.10;95.30;;;;;;5055845;28;20177;-79
2023/09/24 05:28:07;;;;;;;0.80;0.80;;;16.10;95.10;;;;;;5055692;28;20227;-79
2023/09/24 05:30:34;;;;;;;0.60;0.60;;;16.10;94.80;;;;;;5055794;28;20761;-80
2023/09/24 05:33:00;;;;;;;0.50;0.50;;;16.20;94.90;;;;;;5055413;28;20168;-83
2023/09/24 05:35:26;;;;;;;0.50;0.50;;;16.20;94.90;;;;;;5055664;28;20238;-80
2023/09/24 05:37:51;;;;;;;0.70;0.70;;;16.20;94.90;;;;;;5056900;28;20176;-81
2023/09/24 05:40:17;;;;;;;0.70;0.70;;;16.10;95.20;;;;;;5055992;28;20175;-79
2023/09/24 05:42:43;;;;;;;0.93;0.93;;;16.10;95.30;;;;;;5063774;28;20175;-79
2023/09/24 05:45:10;;;;;;;0.80;0.80;;;16.10;95.10;;;;;;5066094;28;20181;-81
2023/09/24 05:47:35;;;;;;;0.80;0.80;;;16.10;95.50;;;;;;5058192;28;20192;-80
2023/09/24 05:50:05;;;;;;;1.43;1.00;;;16.10;95.50;;;;;;5055438;28;20246;-80
2023/09/24 05:52:31;;;;;;;3.17;1.00;;;16.10;95.20;;;;;;5055808;28;20614;-79
2023/09/24 05:54:57;;;;;;;0.80;0.80;;;16.10;95.40;;;;;;5055456;28;20243;-78
2023/09/24 05:57:27;;;;;;;0.90;0.90;;;16.10;95.60;;;;;;5055765;28;20172;-82
2023/09/24 05:59:54;;;;;;;0.93;0.80;;;16.10;95.60;;;;;;5060820;28;20177;-80
2023/09/24 06:02:24;;;;;;;0.77;0.77;;;16.10;95.50;;;;;;5066703;28;20172;-81
2023/09/24 06:04:50;;;;;;;0.83;0.83;;;16.10;95.20;;;;;;5055784;28;20172;-80
2023/09/24 06:07:16;;;;;;;0.90;0.90;;;16.10;95.40;;;;;;5055344;28;20196;-79
2023/09/24 06:09:41;;;;;;;1.03;0.93;;;16.10;95.20;;;;;;5037954;28;20235;-80
2023/09/24 06:12:07;;;;;;;0.70;0.70;;;16.10;95.70;;;;;;5055570;28;20184;-79
2023/09/24 06:14:33;;;;;;;0.80;0.80;;;16.10;95.20;;;;;;5054277;28;20228;-79
2023/09/24 06:16:59;;;;;;;0.70;0.70;;;16.10;95.40;;;;;;5054714;28;20183;-78
2023/09/24 06:19:25;;;;;;;1.00;1.00;;;16.20;95.50;;;;;;5054752;28;20192;-79
2023/09/24 06:21:51;;;;;;;0.87;0.80;;;16.10;95.40;;;;;;5054736;28;20169;-81
2023/09/24 06:24:17;;;;;;;1.30;1.20;;;16.20;95.40;;;;;;5054834;28;20170;-80
2023/09/24 06:26:43;;;;;;;0.70;0.70;;;16.20;95.50;;;;;;5067783;28;20306;-79
2023/09/24 06:29:09;;;;;;;2.00;1.87;;;16.20;95.70;;;;;;5057356;28;20174;-79
2023/09/24 06:31:35;;;;;;;0.80;0.80;;;16.20;95.30;;;;;;5065399;28;20201;-79
2023/09/24 06:34:00;;;;;;;1.10;0.80;;;16.20;95.40;;;;;;5056927;28;20172;-81
2023/09/24 06:36:26;;;;;;;1.30;1.20;;;16.20;95.00;;;;;;5054772;28;20260;-77
2023/09/24 06:38:52;;;;;;;1.27;1.03;;;16.20;95.20;;;;;;5069911;28;20171;-79
2023/09/24 06:41:18;;;;;;;0.90;0.90;;;16.20;95.30;;;;;;5055715;28;20557;-78
2023/09/24 06:43:43;;;;;;;1.07;1.07;;;16.30;95.90;;;;;;5062879;28;20172;-79
2023/09/24 06:46:09;;;;;;;0.73;0.70;;;16.20;96.30;;;;;;5062635;28;20230;-79
2023/09/24 06:48:35;;;;;;;0.80;0.80;;;16.20;96.00;;;;;;5037882;28;20533;-82
2023/09/24 06:51:08;;;;;;;0.50;0.50;;;16.20;95.40;;;;;;5036380;28;20659;-81
2023/09/24 06:53:36;;;;;;;0.83;0.83;;;16.30;95.30;;;;;;5054026;28;20198;-82
2023/09/24 06:56:06;;;;;;;1.00;0.90;;;16.40;95.70;;;;;;5053756;28;20168;-81
2023/09/24 06:58:36;;;;;;;0.60;0.60;;;16.40;96.10;;;;;;5054182;28;20213;-81
2023/09/24 07:01:03;;;;;;;0.90;0.90;;;16.30;96.20;;;;;;5044812;28;20172;-79
2023/09/24 07:03:29;;;;;;;1.37;0.93;;;16.40;96.70;;;;;;5037889;28;20175;-80
2023/09/24 07:05:55;;;;;;;2.17;1.00;;;16.30;96.70;;;;;;5035436;28;20667;-80
2023/09/24 07:08:21;;;;;;;0.90;0.90;;;16.30;95.90;;;;;;5036720;28;20173;-81
2023/09/24 07:11:10;;;;;;;0.60;0.60;;;16.30;95.50;;;;;;5035368;28;20208;-78
2023/09/24 07:13:35;;;;;;;1.80;0.70;;;16.30;95.70;;;;;;5034837;28;20180;-80
2023/09/24 07:16:05;;;;;;;0.93;0.93;;;16.30;95.80;;;;;;5016551;28;20188;-81
2023/09/24 07:18:31;;;;;;;0.90;0.90;;;16.30;96.20;;;;;;5041851;28;20176;-78
2023/09/24 07:20:57;;;;;;;0.90;0.90;;;16.20;96.00;;;;;;5036124;28;20189;-79
2023/09/24 07:23:22;;;;;;;0.60;0.60;;;16.20;95.60;;;;;;5033816;28;20172;-82
2023/09/24 07:25:48;;;;;;;0.87;0.80;;;16.20;95.50;;;;;;5035567;28;20206;-78
2023/09/24 07:28:14;;;;;;;0.70;0.70;;;16.20;95.60;;;;;;5033676;28;20191;-80
2023/09/24 07:30:40;;;;;;;0.90;0.90;;;16.30;96.10;;;;;;5015374;28;20220;-82
2023/09/24 07:33:08;;;;;;;0.87;0.87;;;16.30;95.40;;;;;;5033756;28;20180;-79
2023/09/24 07:35:34;;;;;;;1.07;1.00;;;16.30;95.60;;;;;;5034081;28;20168;-83
2023/09/24 07:38:00;;;;;;;0.93;0.70;;;16.30;95.70;;;;;;5034612;28;20318;-79
2023/09/24 07:40:26;;;;;;;1.67;1.00;;;16.40;96.20;;;;;;5033067;28;20255;-82
2023/09/24 07:42:52;;;;;;;2.53;0.87;;;16.40;96.60;;;;;;5034342;28;20579;-82
2023/09/24 07:45:18;;;;;;;0.63;0.63;;;16.40;95.30;;;;;;5033424;28;20184;-82
2023/09/24 07:47:44;;;;;;;1.40;1.00;;;16.40;95.40;;;;;;5033066;28;20176;-82
2023/09/24 07:50:10;;;;;;;1.30;1.23;;;16.30;95.60;;;;;;5032957;28;20219;-80
2023/09/24 07:52:36;;;;;;;1.00;1.00;;;16.30;95.20;;;;;;5033611;28;20248;-81
2023/09/24 07:55:02;;;;;;;1.00;1.00;;;16.30;95.10;;;;;;5033974;28;20176;-83
2023/09/24 07:57:28;;;;;;;1.07;1.07;;;16.30;95.80;;;;;;5036681;28;20703;-79
2023/09/24 07:59:54;;;;;;;0.90;0.90;;;16.30;96.00;;;;;;5041499;28;20202;-80
2023/09/24 08:02:20;;;;;;;1.03;1.03;;;16.30;95.80;;;;;;5042101;28;20177;-77
2023/09/24 08:04:46;;;;;;;0.97;0.70;;;16.20;96.10;;;;;;5047398;28;20196;-79
2023/09/24 08:07:12;;;;;;;0.90;0.90;;;16.10;96.20;;;;;;5050085;28;20168;-79
2023/09/24 08:09:40;;;;;;;0.70;0.70;;;16.10;96.30;;;;;;5038009;28;20528;-80
2023/09/24 08:12:06;;;;;;;1.00;1.00;;;16.10;97.00;;;;;;5035704;28;20495;-81
2023/09/24 08:14:33;;;;;;;1.80;0.90;;;16.20;97.50;;;;;;5041063;28;20172;-80
2023/09/24 08:16:59;;;;;;;1.17;0.90;;;16.10;97.50;;;;;;5051215;28;20249;-80
2023/09/24 08:19:30;;;;;;;1.63;0.83;;;16.20;97.60;;;;;;5041786;28;20268;-79
2023/09/24 08:21:56;;;;;;;1.43;1.37;;;16.10;97.50;;;;;;5044046;28;20161;-82
2023/09/24 08:24:22;;;;;;;1.23;0.83;;;16.10;98.00;;;;;;5038523;28;20165;-82
2023/09/24 08:26:48;;;;;;;0.73;0.73;;;16.00;98.40;;;;;;5037295;28;20566;-82
2023/09/24 08:29:14;;;;;;;0.93;0.80;;;16.00;99.90;;;;;;5036968;28;20255;-81
2023/09/24 08:31:40;;;;;;;2.03;1.20;;;16.00;99.90;;;;;;5036584;28;20247;-81
2023/09/24 08:34:06;;;;;;;0.73;0.73;;;15.80;99.90;;;;;;5036843;28;20199;-78
2023/09/24 08:36:32;;;;;;;0.77;0.77;;;15.90;99.90;;;;;;5019062;28;20517;-79
2023/09/24 08:38:59;;;;;;;1.07;0.73;;;15.90;99.90;;;;;;5018781;28;20758;-79
2023/09/24 08:41:24;;;;;;;1.10;1.10;;;15.80;99.90;;;;;;5049422;28;20180;-77
2023/09/24 08:43:55;;;;;;;1.73;0.87;;;15.70;99.90;;;;;;5051182;28;20172;-78
2023/09/24 08:46:21;;;;;;;1.67;1.37;;;15.60;99.90;;;;;;5050933;28;20180;-76
2023/09/24 08:48:48;;;;;;;1.00;1.00;;;15.60;99.90;;;;;;5052788;28;20291;-79
2023/09/24 08:51:15;;;;;;;1.50;1.40;;;15.50;99.90;;;;;;5050863;28;20199;-78
2023/09/24 08:53:40;;;;;;;1.20;1.20;;;15.40;99.90;;;;;;5049655;28;20188;-80
2023/09/24 08:56:07;;;;;;;2.10;1.57;;;15.50;99.90;;;;;;5050808;28;20196;-77
2023/09/24 08:58:33;;;;;;;1.13;1.13;;;15.50;99.90;;;;;;5050866;28;20186;-80
2023/09/24 09:01:02;;;;;;;1.10;1.10;;;15.40;99.90;;;;;;5034636;28;20180;-79
2023/09/24 09:03:28;;;;;;;0.97;0.97;;;15.20;99.90;;;;;;5037516;28;20200;-81
2023/09/24 09:05:54;;;;;;;1.37;1.27;;;15.20;99.90;;;;;;5041601;28;20168;-78
2023/09/24 09:08:20;;;;;;;1.13;1.07;;;14.90;99.90;;;;;;5057350;28;20196;-82
2023/09/24 09:10:49;;;;;;;2.57;1.10;;;15.00;99.90;;;;;;5058654;28;20243;-80
2023/09/24 09:13:20;;;;;;;3.60;1.00;;;15.00;99.90;;;;;;5047880;28;20175;-79
2023/09/24 09:15:47;;;;;;;1.13;1.13;;;15.10;99.90;;;;;;5043726;28;20585;-81
2023/09/24 09:18:28;;;;;;;1.37;1.23;;;14.90;99.90;;;;;;5057881;28;20203;-79
2023/09/24 09:21:00;;;;;;;7.87;3.90;;;14.90;99.90;;;;;;5048161;28;20177;-82
2023/09/24 09:23:35;;;;;;;1.20;1.20;;;14.90;99.90;;;;;;5044806;28;20164;-80
2023/09/24 09:26:01;;;;;;;1.90;1.27;;;15.10;99.90;;;;;;5055036;28;20194;-83
2023/09/24 09:28:29;;;;;;;1.20;1.17;;;15.10;99.90;;;;;;5055104;28;20165;-80
2023/09/24 09:31:06;;;;;;;1.20;1.20;;;15.20;99.90;;;;;;5044107;28;20208;-80
2023/09/24 09:33:37;;;;;;;1.20;1.20;;;15.20;99.90;;;;;;5026176;28;20182;-85
2023/09/24 09:36:04;;;;;;;1.33;1.23;;;15.20;99.90;;;;;;5038364;28;20184;-84
2023/09/24 09:38:30;;;;;;;1.47;1.30;;;15.20;99.90;;;;;;5037642;28;20262;-83
2023/09/24 09:40:58;;;;;;;1.40;1.30;;;15.20;99.90;;;;;;5047177;28;20184;-82
2023/09/24 09:43:29;;;;;;;1.67;1.23;;;15.20;99.90;;;;;;5058407;28;20160;-81
2023/09/24 09:45:55;;;;;;;1.53;1.30;;;15.30;99.90;;;;;;5041763;28;20167;-84
2023/09/24 09:48:30;;;;;;;1.93;1.40;;;15.10;99.90;;;;;;5023521;28;20180;-83
2023/09/24 09:51:07;;;;;;;1.10;1.10;;;15.00;99.90;;;;;;5048629;28;20206;-85
2023/09/24 09:53:37;;;;;;;2.10;1.10;;;15.00;99.90;;;;;;5066517;28;20163;-82
2023/09/24 09:56:07;;;;;;;2.33;1.30;;;15.60;99.90;;;;;;5048860;28;20169;-84
2023/09/24 09:58:35;;;;;;;1.30;1.30;;;15.10;99.90;;;;;;5043463;28;20268;-86
2023/09/24 10:01:02;;;;;;;2.40;1.30;;;15.10;99.90;;;;;;5040386;28;20207;-87
2023/09/24 10:03:31;;;;;;;1.73;1.63;;;15.10;99.90;;;;;;5020920;28;20195;-80
2023/09/24 10:05:59;;;;;;;1.17;1.10;;;15.10;99.90;;;;;;5037132;28;20233;-86
2023/09/24 10:08:45;;;;;;;1.33;1.20;;;15.10;99.90;;;;;;5038359;28;20219;-84
2023/09/24 10:11:31;;;;;;;1.20;1.20;;;15.10;99.90;;;;;;5036889;28;20196;-84
2023/09/24 10:13:58;;;;;;;0.90;0.90;;;15.20;99.90;;;;;;5020040;28;20527;-83
2023/09/24 10:16:32;;;;;;;1.00;1.00;;;15.30;99.90;;;;;;5038645;28;20160;-82
2023/09/24 10:19:11;;;;;;;0.93;0.93;;;15.30;99.90;;;;;;5036780;28;20270;-81
2023/09/24 10:21:44;;;;;;;1.10;1.10;;;15.20;99.90;;;;;;5035653;28;20163;-78
2023/09/24 10:24:13;;;;;;;1.27;1.17;;;15.00;99.90;;;;;;5034639;28;20290;-78
2023/09/24 10:26:54;;;;;;;1.00;1.00;;;15.00;99.90;;;;;;5035176;28;20304;-79
2023/09/24 10:29:40;;;;;;;1.07;1.07;;;15.00;99.90;;;;;;5044486;28;20212;-82
2023/09/24 10:32:06;;;;;;;1.30;1.30;;;15.00;99.90;;;;;;5034751;28;20192;-80
2023/09/24 10:34:54;;;;;;;0.90;0.90;;;15.00;99.90;;;;;;5034301;28;20786;-80
2023/09/24 10:37:21;;;;;;;1.10;1.10;;;15.00;99.90;;;;;;5033909;28;20175;-80
2023/09/24 10:40:04;;;;;;;1.20;1.20;;;15.00;99.90;;;;;;5034189;28;20164;-80
2023/09/24 10:42:34;;;;;;;0.83;0.83;;;15.00;99.90;;;;;;5035821;28;20160;-80
2023/09/24 10:45:06;;;;;;;1.07;1.00;;;14.40;99.90;;;;;;5029625;28;20177;-81
2023/09/24 10:47:40;;;;;;;1.03;1.03;;;14.80;99.90;;;;;;5045528;28;20211;-78
2023/09/24 10:50:08;;;;;;;1.10;1.10;;;14.80;99.90;;;;;;5034449;28;20291;-77
2023/09/24 10:53:03;;;;;;;1.20;1.20;;;14.80;99.90;;;;;;5016500;28;20226;-80
2023/09/24 10:55:34;;;;;;;1.30;1.20;;;14.90;99.90;;;;;;5031047;28;20195;-79
2023/09/24 10:58:08;;;;;;;1.37;1.10;;;14.90;99.90;;;;;;5034249;28;20648;-80
2023/09/24 11:00:35;;;;;;;1.10;1.10;;;15.00;99.90;;;;;;5034723;28;20164;-79
2023/09/24 11:03:05;;;;;;;1.50;1.40;;;15.10;99.90;;;;;;5034847;28;20177;-78
2023/09/24 11:05:50;;;;;;;1.03;1.03;;;15.20;99.90;;;;;;5025171;28;20182;-81
2023/09/24 11:08:18;;;;;;;1.43;1.43;;;15.30;99.90;;;;;;5033535;28;20159;-79
2023/09/24 11:10:51;;;;;;;1.87;1.37;;;15.30;99.90;;;;;;5033122;28;20672;-79
2023/09/24 11:13:17;;;;;;;1.40;1.30;;;15.40;99.90;;;;;;5033129;28;20226;-80
2023/09/24 11:15:43;;;;;;;1.43;1.17;;;15.30;99.90;;;;;;5032973;28;20658;-81
2023/09/24 11:18:12;;;;;;;1.47;1.37;;;15.60;99.90;;;;;;5037494;28;20164;-81
2023/09/24 11:20:38;;;;;;;1.80;1.70;;;15.30;99.90;;;;;;5048994;28;20717;-80
2023/09/24 11:23:08;;;;;;;1.60;1.27;;;15.20;99.90;;;;;;5033196;28;20177;-80
2023/09/24 11:25:35;;;;;;;1.60;1.50;;;15.30;99.90;;;;;;5033712;28;20156;-81
2023/09/24 11:28:02;;;;;;;2.20;1.70;;;15.30;99.90;;;;;;5034033;28;20218;-80
2023/09/24 11:30:49;;;;;;;1.70;1.60;;;15.40;99.90;;;;;;5047129;28;20212;-80
2023/09/24 11:33:18;;;;;;;1.47;1.47;;;15.40;99.90;;;;;;5043230;28;20174;-81
2023/09/24 11:35:45;;;;;;;1.73;1.63;;;15.50;99.90;;;;;;5018178;28;20314;-80
2023/09/24 11:38:11;;;;;;;2.43;1.40;;;15.40;99.90;;;;;;5033112;28;20182;-78
2023/09/24 11:40:38;;;;;;;1.40;1.30;;;15.40;99.90;;;;;;5033338;28;20528;-79
2023/09/24 11:43:04;;;;;;;1.40;1.40;;;15.40;99.90;;;;;;5035881;28;20642;-81
2023/09/24 11:45:50;;;;;;;1.27;1.20;;;15.40;99.90;;;;;;5037998;28;20174;-81
2023/09/24 11:48:24;;;;;;;1.30;1.30;;;15.90;99.90;;;;;;5026308;28;20632;-81
2023/09/24 11:51:03;;;;;;;1.50;1.40;;;15.40;99.90;;;;;;5020059;28;20225;-80
2023/09/24 11:53:29;;;;;;;1.53;1.43;;;15.20;99.90;;;;;;5037526;28;20186;-81
2023/09/24 11:55:58;;;;;;;1.23;1.17;;;15.20;99.90;;;;;;5037368;28;20268;-81
2023/09/24 11:58:27;;;;;;;1.57;1.47;;;15.20;99.90;;;;;;5039892;28;20242;-82
2023/09/24 12:00:55;;;;;;;1.27;1.27;;;15.20;99.90;;;;;;5057315;28;20203;-79
2023/09/24 12:03:20;;;;;;;1.57;1.20;;;15.10;99.90;;;;;;5042696;28;20198;-79
2023/09/24 12:05:47;;;;;;;1.27;1.27;;;15.20;99.90;;;;;;5037842;28;20202;-79
2023/09/24 12:08:13;;;;;;;1.07;1.07;;;15.10;99.90;;;;;;5039100;28;20169;-80
2023/09/24 12:10:41;;;;;;;1.70;1.40;;;15.10;99.90;;;;;;5041417;28;20212;-78
2023/09/24 12:13:10;;;;;;;0.90;0.90;;;15.20;99.90;;;;;;5023289;28;20181;-79
2023/09/24 12:15:37;;;;;;;2.00;1.40;;;15.10;99.90;;;;;;5036321;28;20182;-79
2023/09/24 12:18:04;;;;;;;1.10;1.10;;;15.20;99.90;;;;;;5019366;28;20182;-80
2023/09/24 12:20:34;;;;;;;1.17;1.13;;;15.20;99.90;;;;;;5037426;28;20185;-79
2023/09/24 12:23:01;;;;;;;1.50;1.40;;;15.20;99.90;;;;;;5037034;28;20708;-79
2023/09/24 12:25:28;;;;;;;2.67;1.50;;;15.10;99.90;;;;;;5036817;28;20311;-79
2023/09/24 12:27:54;;;;;;;1.43;1.33;;;15.20;99.90;;;;;;5049527;28;20231;-80
2023/09/24 12:30:20;;;;;;;1.33;1.33;;;15.00;99.90;;;;;;5037570;28;20236;-79
2023/09/24 12:32:46;;;;;;;1.40;1.30;;;15.10;99.90;;;;;;5036936;28;20624;-79
2023/09/24 12:35:12;;;;;;;2.27;1.30;;;15.10;99.90;;;;;;5036843;28;20188;-79
2023/09/24 12:37:40;;;;;;;1.37;1.37;;;15.00;99.90;;;;;;5036685;28;20177;-80
2023/09/24 12:40:08;;;;;;;1.30;1.30;;;15.00;99.90;;;;;;5038560;28;20176;-80
2023/09/24 12:42:41;;;;;;;1.60;1.50;;;14.90;99.90;;;;;;5039585;28;20173;-81
2023/09/24 12:45:09;;;;;;;2.20;1.23;;;14.80;99.90;;;;;;5057569;28;20192;-80
2023/09/24 12:47:37;;;;;;;1.50;1.40;;;14.80;99.90;;;;;;5041172;28;20184;-81
2023/09/24 12:50:05;;;;;;;1.47;1.37;;;14.50;99.90;;;;;;5044450;28;20235;-82
2023/09/24 12:52:38;;;;;;;1.20;1.20;;;14.70;99.90;;;;;;5027636;28;20602;-80